Time;durP1;ratioP1;P1;durP2;ratioP2;P2;SDS_P1;SDS_P2;PMS_P1;PMS_P2;Temp;Humidity;BMP_temperature;BMP_pressure;BME280_temperature;BME280_humidity;BME280_pressure;Samples;Min_cycle;Max_cycle;Signal;HPM_P1;HPM_P2
2023/01/11 00:00:41;;;;;;;8.50;6.18;;;;;;;;;;6152575;23;20024;-80
2023/01/11 00:03:10;;;;;;;6.82;5.65;;;;;;;;;;6153314;23;20358;-80
2023/01/11 00:05:38;;;;;;;5.65;4.10;;;;;;;;;;6150600;23;20017;-80
2023/01/11 00:08:06;;;;;;;6.40;4.38;;;;;;;;;;6126010;23;20484;-80
2023/01/11 00:10:34;;;;;;;8.65;5.00;;;;;;;;;;6152845;23;20018;-80
2023/01/11 00:13:04;;;;;;;5.18;4.07;;;;;;;;;;6155376;23;20335;-80
2023/01/11 00:15:35;;;;;;;5.75;3.80;;;;;;;;;;6126933;23;20013;-80
2023/01/11 00:18:02;;;;;;;6.93;3.13;;;;;;;;;;6152765;23;20014;-80
2023/01/11 00:20:31;;;;;;;6.07;4.13;;;;;;;;;;6125593;23;20478;-80
2023/01/11 00:23:00;;;;;;;15.48;4.40;;;;;;;;;;6153488;23;20021;-81
2023/01/11 00:25:28;;;;;;;24.52;4.82;;;;;;;;;;6163339;23;20013;-80
2023/01/11 00:27:57;;;;;;;13.23;5.45;;;;;;;;;;6152208;23;20014;-81
2023/01/11 00:30:25;;;;;;;4.53;4.05;;;;;;;;;;6150458;23;20021;-80
2023/01/11 00:32:55;;;;;;;4.50;3.40;;;;;;;;;;6151610;23;20024;-80
2023/01/11 00:35:23;;;;;;;6.25;4.68;;;;;;;;;;6152240;23;20014;-81
2023/01/11 00:37:54;;;;;;;9.00;3.95;;;;;;;;;;6154234;23;20017;-81
2023/01/11 00:40:22;;;;;;;9.77;5.65;;;;;;;;;;6149647;23;20036;-81
2023/01/11 00:48:26;;;;;;;7.38;3.53;;;;;;;;;;6157773;23;20014;-80
2023/01/11 00:50:58;;;;;;;9.02;3.25;;;;;;;;;;6160983;23;20017;-81
2023/01/11 00:53:28;;;;;;;7.80;3.60;;;;;;;;;;6128715;23;20025;-81
2023/01/11 00:55:56;;;;;;;6.63;3.17;;;;;;;;;;6151388;23;20488;-81
2023/01/11 00:58:23;;;;;;;9.75;3.60;;;;;;;;;;6152699;23;20013;-81
2023/01/11 01:00:55;;;;;;;6.05;3.28;;;;;;;;;;6149701;23;20025;-81
2023/01/11 01:03:22;;;;;;;7.75;3.05;;;;;;;;;;6127835;23;20354;-81
2023/01/11 01:05:54;;;;;;;13.25;5.18;;;;;;;;;;6151367;23;20021;-80
2023/01/11 01:08:21;;;;;;;9.45;4.75;;;;;;;;;;6152093;23;20025;-81
2023/01/11 01:10:52;;;;;;;5.57;3.17;;;;;;;;;;6152330;23;20017;-81
2023/01/11 01:16:15;;;;;;;3.50;3.20;;;;;;;;;;6078467;23;20029;-81
2023/01/11 01:18:44;;;;;;;5.63;4.43;;;;;;;;;;6154277;23;20010;-80
2023/01/11 01:21:14;;;;;;;6.75;3.63;;;;;;;;;;6149925;23;20024;-80
2023/01/11 01:23:44;;;;;;;7.35;4.10;;;;;;;;;;6152567;23;20037;-81
2023/01/11 01:26:12;;;;;;;8.60;3.45;;;;;;;;;;6157187;23;20278;-81
2023/01/11 01:28:39;;;;;;;5.93;3.72;;;;;;;;;;6155243;23;20009;-81
2023/01/11 01:31:07;;;;;;;7.35;3.45;;;;;;;;;;6190507;23;20061;-81
2023/01/11 01:33:36;;;;;;;8.25;4.07;;;;;;;;;;6147668;23;20028;-81
2023/01/11 01:36:05;;;;;;;10.27;3.83;;;;;;;;;;6151224;23;20018;-81
2023/01/11 01:38:34;;;;;;;6.65;4.45;;;;;;;;;;6127217;23;20028;-81
2023/01/11 01:41:02;;;;;;;6.88;3.42;;;;;;;;;;6126646;23;20358;-81
2023/01/11 01:46:27;;;;;;;5.53;3.95;;;;;;;;;;5078052;27;20405;-81
2023/01/11 01:48:58;;;;;;;7.97;3.38;;;;;;;;;;5080461;28;20051;-81
2023/01/11 01:51:28;;;;;;;5.18;3.72;;;;;;;;;;5068924;28;20078;-81
2023/01/11 01:53:57;;;;;;;8.05;3.45;;;;;;;;;;5075410;28;20055;-81
2023/01/11 01:56:30;;;;;;;7.93;4.03;;;;;;;;;;5074800;28;20055;-81
2023/01/11 01:59:02;;;;;;;8.68;3.28;;;;;;;;;;5074827;28;20063;-81
2023/01/11 02:01:49;;;;;;;7.72;3.38;;;;;;;;;;5091846;28;20059;-81
2023/01/11 02:04:21;;;;;;;9.00;4.38;;;;;;;;;;5077127;28;20048;-81
2023/01/11 02:06:49;;;;;;;7.20;3.42;;;;;;;;;;5092617;28;20051;-81
2023/01/11 02:09:22;;;;;;;7.95;4.28;;;;;;;;;;5081510;28;20410;-81
2023/01/11 02:11:51;;;;;;;3.80;3.00;;;;;;;;;;5066974;28;20056;-81
2023/01/11 02:14:19;;;;;;;4.13;3.67;;;;;;;;;;5077224;28;20063;-81
2023/01/11 02:16:48;;;;;;;7.10;4.15;;;;;;;;;;5064140;28;20056;-81
2023/01/11 02:19:27;;;;;;;7.57;4.00;;;;;;;;;;5085568;28;20233;-81
2023/01/11 02:22:07;;;;;;;7.10;3.40;;;;;;;;;;5061688;28;20068;-81
2023/01/11 02:24:56;;;;;;;5.82;4.03;;;;;;;;;;5080641;28;20052;-81
2023/01/11 02:27:29;;;;;;;10.27;3.83;;;;;;;;;;5081340;28;20049;-81
2023/01/11 02:30:05;;;;;;;4.83;3.63;;;;;;;;;;5078853;28;20044;-81
2023/01/11 02:32:36;;;;;;;4.22;2.70;;;;;;;;;;5091939;28;20044;-81
2023/01/11 02:35:08;;;;;;;;;;;;;;;;;;5079172;28;20043;-81
2023/01/11 02:37:44;;;;;;;4.60;2.70;;;;;;;;;;5066265;28;19921;-81
2023/01/11 02:40:17;;;;;;;4.90;3.25;;;;;;;;;;5076877;28;20044;-80
2023/01/11 02:45:42;;;;;;;4.32;2.75;;;;;;;;;;5061055;28;20049;-81
2023/01/11 02:48:14;;;;;;;7.43;3.88;;;;;;;;;;5076500;28;20248;-81
2023/01/11 02:50:47;;;;;;;6.80;3.90;;;;;;;;;;5081906;28;20048;-81
2023/01/11 02:53:22;;;;;;;7.72;3.42;;;;;;;;;;5082692;28;20056;-81
2023/01/11 02:55:55;;;;;;;6.35;3.80;;;;;;;;;;5076356;28;20056;-81
2023/01/11 02:58:25;;;;;;;4.88;3.45;;;;;;;;;;5079244;28;20430;-81
2023/01/11 03:00:58;;;;;;;7.25;3.55;;;;;;;;;;5069923;28;20055;-81
2023/01/11 03:03:28;;;;;;;6.82;3.28;;;;;;;;;;5070083;28;20509;-81
2023/01/11 03:06:01;;;;;;;11.02;3.75;;;;;;;;;;5068475;28;20036;-80
2023/01/11 03:08:43;;;;;;;4.03;2.97;;;;;;;;;;5070648;28;20059;-81
2023/01/11 03:11:14;;;;;;;5.63;5.13;;;;;;;;;;5065856;28;20057;-81
2023/01/11 03:13:54;;;;;;;7.10;3.92;;;;;;;;;;5061239;28;20051;-80
2023/01/11 03:16:24;;;;;;;7.60;3.83;;;;;;;;;;5071450;28;20052;-80
2023/01/11 03:19:09;;;;;;;7.13;4.43;;;;;;;;;;5063203;28;20818;-80
2023/01/11 03:21:47;;;;;;;9.50;4.00;;;;;;;;;;5056106;28;20045;-80
2023/01/11 03:24:23;;;;;;;9.57;4.57;;;;;;;;;;5048773;28;20055;-80
2023/01/11 03:27:03;;;;;;;7.10;5.35;;;;;;;;;;5069637;28;20056;-80
2023/01/11 03:29:34;;;;;;;7.72;4.55;;;;;;;;;;5055767;28;20915;-80
2023/01/11 03:32:13;;;;;;;14.10;4.85;;;;;;;;;;5061626;28;20055;-81
2023/01/11 03:34:45;;;;;;;8.25;4.55;;;;;;;;;;5071757;28;20045;-81
2023/01/11 03:37:16;;;;;;;6.85;4.30;;;;;;;;;;5077244;28;20052;-81
2023/01/11 03:39:48;;;;;;;14.27;4.90;;;;;;;;;;5070023;28;20052;-81
2023/01/11 03:42:17;;;;;;;5.38;4.60;;;;;;;;;;5044864;28;20047;-81
2023/01/11 03:44:47;;;;;;;5.38;4.28;;;;;;;;;;5064565;28;20052;-81
2023/01/11 03:47:18;;;;;;;3.83;2.92;;;;;;;;;;5069066;28;20055;-81
2023/01/11 03:49:47;;;;;;;6.38;4.10;;;;;;;;;;5064898;28;20040;-81
2023/01/11 03:52:16;;;;;;;5.00;3.78;;;;;;;;;;5067050;28;20050;-81
2023/01/11 03:54:44;;;;;;;9.35;4.40;;;;;;;;;;5068388;28;20048;-81
2023/01/11 03:57:14;;;;;;;4.63;4.15;;;;;;;;;;5051315;28;20048;-81
2023/01/11 03:59:42;;;;;;;9.20;3.35;;;;;;;;;;5067832;28;20410;-81
2023/01/11 04:02:15;;;;;;;5.57;4.32;;;;;;;;;;5062253;28;20047;-80
2023/01/11 04:04:43;;;;;;;5.13;3.97;;;;;;;;;;5061280;28;20051;-81
2023/01/11 04:07:12;;;;;;;5.80;3.72;;;;;;;;;;5066967;28;20056;-81
2023/01/11 04:09:40;;;;;;;4.82;4.22;;;;;;;;;;5068119;28;20057;-81
2023/01/11 04:12:10;;;;;;;8.23;3.92;;;;;;;;;;5067743;28;20044;-80
2023/01/11 04:14:39;;;;;;;5.25;3.65;;;;;;;;;;5071479;28;20402;-81
2023/01/11 04:17:06;;;;;;;4.97;3.63;;;;;;;;;;5068378;28;20037;-81
2023/01/11 04:19:35;;;;;;;9.10;4.30;;;;;;;;;;5062419;28;20045;-80
2023/01/11 04:22:02;;;;;;;5.13;3.50;;;;;;;;;;5061109;28;20402;-81
2023/01/11 04:24:29;;;;;;;4.53;3.25;;;;;;;;;;5070478;28;20052;-81
2023/01/11 04:26:56;;;;;;;7.47;5.22;;;;;;;;;;5070852;28;20493;-81
2023/01/11 04:29:23;;;;;;;4.72;4.32;;;;;;;;;;5052661;28;20049;-81
2023/01/11 04:31:51;;;;;;;4.90;3.33;;;;;;;;;;5071635;28;20036;-81
2023/01/11 04:34:18;;;;;;;7.05;4.88;;;;;;;;;;5051245;22;20424;-87
2023/01/11 04:36:47;;;;;;;8.90;4.10;;;;;;;;;;5010756;28;20053;-87
2023/01/11 04:39:14;;;;;;;8.48;5.10;;;;;;;;;;4988098;28;20504;-87
2023/01/11 04:44:26;;;;;;;5.57;4.38;;;;;;;;;;4988078;28;20058;-87
2023/01/11 04:46:53;;;;;;;6.32;5.50;;;;;;;;;;5002599;28;20145;-88
2023/01/11 04:49:21;;;;;;;11.57;5.88;;;;;;;;;;4997615;28;20069;-88
2023/01/11 04:51:49;;;;;;;7.13;5.05;;;;;;;;;;5009478;28;20046;-87
2023/01/11 04:54:17;;;;;;;5.53;3.85;;;;;;;;;;4986671;28;20054;-87
2023/01/11 04:56:44;;;;;;;5.38;3.85;;;;;;;;;;4988411;28;20034;-88
2023/01/11 04:59:12;;;;;;;5.63;4.20;;;;;;;;;;4993575;28;21942;-87
2023/01/11 05:01:39;;;;;;;8.73;3.85;;;;;;;;;;4990599;28;20054;-86
2023/01/11 05:04:06;;;;;;;6.82;3.53;;;;;;;;;;5001803;28;20046;-86
2023/01/11 05:06:33;;;;;;;9.43;3.90;;;;;;;;;;4988877;28;20049;-86
2023/01/11 05:09:04;;;;;;;12.50;5.22;;;;;;;;;;4984860;28;20046;-86
2023/01/11 05:11:32;;;;;;;5.25;4.57;;;;;;;;;;5006438;28;20049;-86
2023/01/11 05:13:59;;;;;;;7.78;5.57;;;;;;;;;;4990414;28;20061;-86
2023/01/11 05:16:29;;;;;;;10.40;5.05;;;;;;;;;;4988218;28;20046;-86
2023/01/11 05:19:00;;;;;;;10.30;4.70;;;;;;;;;;4991444;28;20050;-87
2023/01/11 05:21:31;;;;;;;6.95;5.55;;;;;;;;;;5005430;28;20050;-86
2023/01/11 05:23:59;;;;;;;5.55;4.88;;;;;;;;;;4989782;28;20656;-87
2023/01/11 05:26:30;;;;;;;7.60;5.15;;;;;;;;;;4986594;28;20408;-86
2023/01/11 05:29:00;;;;;;;4.70;3.97;;;;;;;;;;4993489;28;20373;-87
2023/01/11 05:31:31;;;;;;;11.43;5.13;;;;;;;;;;5004150;28;20523;-87
2023/01/11 05:33:58;;;;;;;6.88;5.15;;;;;;;;;;4990415;28;20061;-87
2023/01/11 05:36:27;;;;;;;6.30;4.72;;;;;;;;;;4988448;28;20046;-87
2023/01/11 05:38:55;;;;;;;9.75;5.60;;;;;;;;;;4973268;28;20050;-87
2023/01/11 05:41:26;;;;;;;7.32;4.97;;;;;;;;;;4983256;28;20058;-88
2023/01/11 05:46:43;;;;;;;8.32;5.25;;;;;;;;;;4955326;28;20404;-87
2023/01/11 05:49:12;;;;;;;8.35;6.45;;;;;;;;;;4974979;28;20054;-87
2023/01/11 05:51:39;;;;;;;7.28;5.30;;;;;;;;;;4974977;28;20043;-88
2023/01/11 05:54:10;;;;;;;6.25;4.60;;;;;;;;;;4974207;28;20048;-88
2023/01/11 05:56:37;;;;;;;7.32;5.03;;;;;;;;;;4988238;28;20616;-87
2023/01/11 05:59:06;;;;;;;6.32;5.70;;;;;;;;;;4978168;28;20050;-87
2023/01/11 06:01:33;;;;;;;7.32;4.43;;;;;;;;;;4974699;28;20595;-87
2023/01/11 06:04:01;;;;;;;9.13;7.15;;;;;;;;;;4971023;28;20054;-87
2023/01/11 06:06:28;;;;;;;6.65;5.20;;;;;;;;;;4976490;28;20062;-87
2023/01/11 06:08:55;;;;;;;6.70;5.43;;;;;;;;;;4974596;28;20046;-87
2023/01/11 06:11:25;;;;;;;7.28;6.32;;;;;;;;;;4974312;28;20066;-87
2023/01/11 06:13:52;;;;;;;9.95;6.40;;;;;;;;;;4980263;28;20050;-88
2023/01/11 06:16:21;;;;;;;19.88;6.57;;;;;;;;;;4989624;28;20525;-87
2023/01/11 06:18:49;;;;;;;7.47;5.68;;;;;;;;;;4990387;28;20054;-87
2023/01/11 06:21:20;;;;;;;6.70;5.75;;;;;;;;;;4986179;28;20508;-87
2023/01/11 06:23:49;;;;;;;6.93;6.15;;;;;;;;;;4973938;28;20520;-87
2023/01/11 06:26:18;;;;;;;12.60;8.98;;;;;;;;;;4991206;28;20429;-87
2023/01/11 06:28:46;;;;;;;11.13;8.65;;;;;;;;;;4971617;28;20058;-87
2023/01/11 06:31:13;;;;;;;9.43;6.07;;;;;;;;;;4975054;28;20050;-87
2023/01/11 06:33:44;;;;;;;14.52;6.53;;;;;;;;;;4959332;28;20501;-87
2023/01/11 06:36:13;;;;;;;9.15;6.20;;;;;;;;;;4978958;28;21106;-87
2023/01/11 06:38:40;;;;;;;8.85;5.72;;;;;;;;;;4981363;28;20047;-87
2023/01/11 06:41:08;;;;;;;8.93;6.45;;;;;;;;;;4995217;28;20038;-87
2023/01/11 06:43:37;;;;;;;6.32;5.70;;;;;;;;;;4995221;28;20054;-87
2023/01/11 06:54:53;;;;;;;11.38;5.68;;;;;;;;;;5141401;22;20651;-88
2023/01/11 06:57:23;;;;;;;15.73;7.88;;;;;;;;;;5048355;28;20048;-89
2023/01/11 06:59:50;;;;;;;13.80;9.05;;;;;;;;;;5056550;28;20041;-87
2023/01/11 07:02:17;;;;;;;11.73;10.60;;;;;;;;;;5062111;28;20064;-89
2023/01/11 07:04:48;;;;;;;14.57;11.02;;;;;;;;;;5059964;28;20053;-92
2023/01/11 07:07:18;;;;;;;12.38;7.82;;;;;;;;;;5061804;28;20060;-88
2023/01/11 07:09:45;;;;;;;15.80;6.47;;;;;;;;;;5067936;28;20068;-88
2023/01/11 07:12:21;;;;;;;9.93;6.65;;;;;;;;;;5066201;28;20056;-88
2023/01/11 07:14:57;;;;;;;9.07;6.07;;;;;;;;;;5049802;28;20044;-87
2023/01/11 07:17:30;;;;;;;12.85;5.93;;;;;;;;;;5051410;28;20178;-88
2023/01/11 07:19:58;;;;;;;6.57;5.50;;;;;;;;;;5059621;28;20049;-88
2023/01/11 07:22:29;;;;;;;11.77;7.65;;;;;;;;;;5065798;28;20052;-88
2023/01/11 07:25:05;;;;;;;7.30;6.28;;;;;;;;;;5062644;28;20049;-89
2023/01/11 07:27:34;;;;;;;11.15;7.93;;;;;;;;;;5066292;28;20060;-87
2023/01/11 07:30:07;;;;;;;12.75;7.72;;;;;;;;;;5079234;28;20041;-88
2023/01/11 07:32:36;;;;;;;12.60;8.13;;;;;;;;;;5070540;28;20055;-88
2023/01/11 07:35:12;;;;;;;12.18;7.05;;;;;;;;;;5049262;28;20056;-89
2023/01/11 07:37:40;;;;;;;7.10;6.32;;;;;;;;;;5070756;28;20045;-88
2023/01/11 07:40:15;;;;;;;9.98;8.60;;;;;;;;;;5055555;28;20517;-88
2023/01/11 07:45:39;;;;;;;8.52;7.10;;;;;;;;;;5078711;28;20421;-88
2023/01/11 07:48:10;;;;;;;15.13;10.40;;;;;;;;;;5052572;28;20049;-88
2023/01/11 07:50:39;;;;;;;17.05;9.68;;;;;;;;;;5070322;28;20057;-89
2023/01/11 07:53:09;;;;;;;10.48;8.02;;;;;;;;;;5057063;28;20040;-89
2023/01/11 07:55:38;;;;;;;9.13;5.68;;;;;;;;;;5055688;28;20539;-90
2023/01/11 07:58:07;;;;;;;9.13;6.63;;;;;;;;;;5056576;28;20052;-88
2023/01/11 08:00:39;;;;;;;9.70;5.90;;;;;;;;;;5057513;28;20067;-88
2023/01/11 08:03:10;;;;;;;12.15;6.10;;;;;;;;;;5070438;28;20615;-88
2023/01/11 08:05:39;;;;;;;7.20;5.53;;;;;;;;;;5052598;28;20055;-89
2023/01/11 08:08:07;;;;;;;8.40;5.47;;;;;;;;;;5070273;28;20037;-90
2023/01/11 08:10:35;;;;;;;10.93;6.57;;;;;;;;;;5049130;28;20541;-89
2023/01/11 08:15:57;;;;;;;9.20;5.88;;;;;;;;;;5054634;28;20757;-89
2023/01/11 08:18:24;;;;;;;7.45;5.32;;;;;;;;;;5045321;28;20045;-89
2023/01/11 08:20:54;;;;;;;7.65;5.03;;;;;;;;;;5053633;28;20075;-92
2023/01/11 08:23:22;;;;;;;7.88;5.95;;;;;;;;;;5054845;28;20386;-88
2023/01/11 08:26:01;;;;;;;7.63;5.80;;;;;;;;;;5046991;28;20055;-88
2023/01/11 08:28:39;;;;;;;5.57;4.50;;;;;;;;;;5051852;28;20052;-89
2023/01/11 08:31:16;;;;;;;10.32;6.35;;;;;;;;;;5064046;28;20052;-89
2023/01/11 08:33:44;;;;;;;13.18;8.02;;;;;;;;;;5069924;28;20049;-88
2023/01/11 08:36:14;;;;;;;13.63;8.18;;;;;;;;;;5053264;28;20060;-88
2023/01/11 08:38:44;;;;;;;12.05;8.27;;;;;;;;;;5052797;28;20056;-90
2023/01/11 08:41:13;;;;;;;10.48;7.65;;;;;;;;;;5061799;28;20049;-91
2023/01/11 08:43:46;;;;;;;10.88;6.28;;;;;;;;;;5054242;28;20647;-89
2023/01/11 08:46:16;;;;;;;8.00;7.13;;;;;;;;;;5055822;28;20045;-88
2023/01/11 08:48:45;;;;;;;8.23;6.30;;;;;;;;;;5067727;28;20045;-89
2023/01/11 08:51:38;;;;;;;10.02;6.03;;;;;;;;;;5065469;28;20052;-89
2023/01/11 08:54:11;;;;;;;10.68;7.78;;;;;;;;;;5044367;28;20049;-88
2023/01/11 08:56:51;;;;;;;9.52;7.13;;;;;;;;;;5067681;28;20594;-88
2023/01/11 08:59:21;;;;;;;12.70;8.85;;;;;;;;;;5053255;28;20048;-90
2023/01/11 09:01:52;;;;;;;11.93;9.45;;;;;;;;;;5069290;28;20061;-89
2023/01/11 09:04:24;;;;;;;16.10;10.60;;;;;;;;;;5068648;28;20048;-89
2023/01/11 09:06:51;;;;;;;20.52;14.48;;;;;;;;;;5069921;28;20055;-91
2023/01/11 09:09:24;;;;;;;26.30;18.23;;;;;;;;;;5052711;28;20052;-88
2023/01/11 09:12:07;;;;;;;25.13;16.95;;;;;;;;;;5053613;28;20490;-91
2023/01/11 09:14:47;;;;;;;14.95;10.02;;;;;;;;;;5052753;28;20049;-89
2023/01/11 09:17:25;;;;;;;13.25;10.35;;;;;;;;;;5055363;28;20056;-90
2023/01/11 09:19:53;;;;;;;9.90;7.95;;;;;;;;;;5068139;28;20049;-89
2023/01/11 09:22:23;;;;;;;13.40;9.05;;;;;;;;;;5053044;28;20059;-89
2023/01/11 09:24:50;;;;;;;7.05;6.22;;;;;;;;;;5050840;28;20052;-89
2023/01/11 09:27:31;;;;;;;11.50;8.13;;;;;;;;;;5051740;28;20060;-88
2023/01/11 09:30:03;;;;;;;16.10;6.72;;;;;;;;;;5038525;28;20530;-89
2023/01/11 09:32:33;;;;;;;12.48;7.75;;;;;;;;;;5053782;28;20048;-89
2023/01/11 09:35:02;;;;;;;11.55;6.80;;;;;;;;;;5051700;28;20051;-89
2023/01/11 09:37:35;;;;;;;9.13;7.32;;;;;;;;;;5076193;28;20049;-90
2023/01/11 09:40:17;;;;;;;14.55;7.93;;;;;;;;;;5048449;28;20045;-91
2023/01/11 09:42:51;;;;;;;8.05;5.22;;;;;;;;;;5054723;28;20402;-88
2023/01/11 09:45:33;;;;;;;8.95;6.47;;;;;;;;;;5053310;28;20127;-91
2023/01/11 09:48:11;;;;;;;9.93;7.13;;;;;;;;;;5071038;28;20044;-90
2023/01/11 09:50:42;;;;;;;7.72;6.88;;;;;;;;;;5057652;28;20057;-89
2023/01/11 09:53:21;;;;;;;11.65;7.28;;;;;;;;;;5078011;28;20052;-91
2023/01/11 09:55:52;;;;;;;9.80;7.35;;;;;;;;;;5053938;28;20048;-90
2023/01/11 09:58:37;;;;;;;13.02;6.18;;;;;;;;;;5053828;28;20056;-90
2023/01/11 10:01:13;;;;;;;10.73;8.52;;;;;;;;;;5053318;28;20052;-91
2023/01/11 10:04:02;;;;;;;9.73;7.53;;;;;;;;;;5052234;28;20051;-88
2023/01/11 10:06:34;;;;;;;8.05;7.25;;;;;;;;;;5050162;28;20079;-88
2023/01/11 10:09:23;;;;;;;9.15;7.70;;;;;;;;;;5055575;28;20075;-88
2023/01/11 10:12:03;;;;;;;5.93;5.40;;;;;;;;;;5058566;28;20052;-91
2023/01/11 10:14:40;;;;;;;6.57;5.78;;;;;;;;;;5070202;28;20123;-88
2023/01/11 10:17:41;;;;;;;8.00;4.32;;;;;;;;;;5087587;28;20064;-88
2023/01/11 10:20:22;;;;;;;2.35;2.03;;;;;;;;;;5045674;28;20045;-89
2023/01/11 10:22:57;;;;;;;2.70;2.00;;;;;;;;;;5072027;28;20056;-89
2023/01/11 10:25:32;;;;;;;4.22;1.35;;;;;;;;;;5054497;28;20044;-90
2023/01/11 10:28:07;;;;;;;1.42;1.10;;;;;;;;;;5050212;28;20513;-91
2023/01/11 10:30:52;;;;;;;1.92;1.33;;;;;;;;;;5068448;28;20064;-89
2023/01/11 10:34:14;;;;;;;;;;;;;;;;;;;;;
2023/01/11 10:41:51;;;;;;;;;;;;;;;;;;;;;
2023/01/11 10:45:27;;;;;;;;;;;;;;;;;;;;;
2023/01/11 10:49:19;;;;;;;;;;;;;;;;;;;;;
2023/01/11 10:52:28;;;;;;;1.10;1.00;;;;;;;;;;5048839;22;20044;-88
2023/01/11 10:54:57;;;;;;;1.05;0.95;;;;;;;;;;5048740;28;20052;-89
2023/01/11 10:57:35;;;;;;;1.65;1.23;;;;;;;;;;5025674;28;20495;-89
2023/01/11 11:00:12;;;;;;;1.90;1.10;;;;;;;;;;5045885;28;20104;-89
2023/01/11 11:02:59;;;;;;;2.40;1.15;;;;;;;;;;5046110;28;20063;-89
2023/01/11 11:05:33;;;;;;;3.13;1.73;;;;;;;;;;5026882;28;20136;-89
2023/01/11 11:08:08;;;;;;;5.40;1.70;;;;;;;;;;5050466;28;20041;-89
2023/01/11 11:10:42;;;;;;;1.52;1.42;;;;;;;;;;5044820;28;20426;-91
2023/01/11 11:13:22;;;;;;;1.42;1.33;;;;;;;;;;5052751;28;20055;-90
2023/01/11 11:15:54;;;;;;;2.88;2.55;;;;;;;;;;5047145;28;20053;-89
2023/01/11 11:18:22;;;;;;;1.90;1.58;;;;;;;;;;5053158;28;20072;-89
2023/01/11 11:20:49;;;;;;;1.48;1.30;;;;;;;;;;5050032;28;20431;-89
2023/01/11 11:23:20;;;;;;;2.42;2.05;;;;;;;;;;5052777;28;20052;-89
2023/01/11 11:25:50;;;;;;;5.07;3.97;;;;;;;;;;5039742;28;20049;-89
2023/01/11 11:28:26;;;;;;;1.65;1.55;;;;;;;;;;5040947;28;20041;-90
2023/01/11 11:30:54;;;;;;;3.67;1.70;;;;;;;;;;5050303;28;20411;-90
2023/01/11 11:33:24;;;;;;;1.88;1.38;;;;;;;;;;5051683;28;20491;-90
2023/01/11 11:35:56;;;;;;;5.88;2.10;;;;;;;;;;5049360;28;20056;-89
2023/01/11 11:38:27;;;;;;;2.97;1.70;;;;;;;;;;5052493;28;20045;-89
2023/01/11 11:40:59;;;;;;;2.83;2.03;;;;;;;;;;5049347;28;20052;-89
2023/01/11 11:43:27;;;;;;;2.63;2.05;;;;;;;;;;5051609;28;20048;-89
2023/01/11 11:45:56;;;;;;;2.53;1.38;;;;;;;;;;5051674;28;20049;-90
2023/01/11 11:48:24;;;;;;;3.60;2.33;;;;;;;;;;5050591;28;20053;-88
2023/01/11 11:50:52;;;;;;;3.53;1.60;;;;;;;;;;5041183;28;20048;-89
2023/01/11 11:53:37;;;;;;;2.72;1.30;;;;;;;;;;5035672;28;20557;-89
2023/01/11 11:56:15;;;;;;;2.30;1.23;;;;;;;;;;5039057;28;20057;-89
2023/01/11 11:58:43;;;;;;;6.82;3.70;;;;;;;;;;5042028;28;20049;-89
2023/01/11 12:01:23;;;;;;;5.15;3.90;;;;;;;;;;5045268;28;20049;-88
2023/01/11 12:03:52;;;;;;;5.65;3.75;;;;;;;;;;5034608;28;20119;-88
2023/01/11 12:06:24;;;;;;;1.95;1.40;;;;;;;;;;5038560;28;20045;-88
2023/01/11 12:08:54;;;;;;;1.98;1.45;;;;;;;;;;5053156;28;20418;-88
2023/01/11 12:11:28;;;;;;;4.35;2.25;;;;;;;;;;5047603;28;20045;-88
2023/01/11 12:14:03;;;;;;;3.15;1.20;;;;;;;;;;5050654;28;20053;-88
2023/01/11 12:16:34;;;;;;;2.10;1.58;;;;;;;;;;5047771;28;20049;-88
2023/01/11 12:19:01;;;;;;;1.52;1.33;;;;;;;;;;5051521;28;20049;-88
2023/01/11 12:21:30;;;;;;;2.08;1.65;;;;;;;;;;5048773;28;20047;-89
2023/01/11 12:24:12;;;;;;;2.45;1.98;;;;;;;;;;5051594;28;20041;-88
2023/01/11 12:26:46;;;;;;;1.15;1.05;;;;;;;;;;5046820;28;20053;-88
2023/01/11 12:29:34;;;;;;;3.13;2.30;;;;;;;;;;5020836;28;20056;-88
2023/01/11 12:32:12;;;;;;;1.50;1.40;;;;;;;;;;5039130;28;20410;-88
2023/01/11 12:34:51;;;;;;;1.63;1.33;;;;;;;;;;5049742;28;20045;-88
2023/01/11 12:37:28;;;;;;;3.78;2.15;;;;;;;;;;5041075;28;20522;-88
2023/01/11 12:40:02;;;;;;;1.70;1.00;;;;;;;;;;5060836;28;20045;-87
2023/01/11 12:42:37;;;;;;;;;;;;;;;;;;5051959;28;20049;-87
2023/01/11 12:45:14;;;;;;;1.40;0.90;;;;;;;;;;5065073;28;19932;-88
2023/01/11 12:47:59;;;;;;;2.28;2.08;;;;;;;;;;5056818;28;20052;-89
2023/01/11 12:50:29;;;;;;;2.45;1.00;;;;;;;;;;5041629;28;20049;-89
2023/01/11 12:53:26;;;;;;;0.63;0.50;;;;;;;;;;5048204;28;20060;-90
2023/01/11 12:56:11;;;;;;;1.13;0.88;;;;;;;;;;5042887;28;20530;-89
2023/01/11 12:58:43;;;;;;;2.30;1.73;;;;;;;;;;5047065;28;20049;-89
2023/01/11 13:01:34;;;;;;;1.67;1.08;;;;;;;;;;5047474;28;20049;-89
2023/01/11 13:04:14;;;;;;;1.67;0.70;;;;;;;;;;5033892;28;20410;-89
2023/01/11 13:06:44;;;;;;;2.03;0.88;;;;;;;;;;5048315;28;20055;-89
2023/01/11 13:09:19;;;;;;;2.67;0.80;;;;;;;;;;5048966;28;20044;-89
2023/01/11 13:11:53;;;;;;;0.80;0.60;;;;;;;;;;5036228;28;20048;-90
2023/01/11 13:14:45;;;;;;;1.50;1.20;;;;;;;;;;5033548;28;20057;-89
2023/01/11 13:17:20;;;;;;;0.65;0.65;;;;;;;;;;5051223;28;20494;-89
2023/01/11 13:19:52;;;;;;;1.50;0.63;;;;;;;;;;5060621;28;20063;-89
2023/01/11 13:22:22;;;;;;;0.80;0.80;;;;;;;;;;5063093;28;20053;-89
2023/01/11 14:08:45;;;;;;;2.45;1.75;;;;;;;;;;5068139;28;20406;-89
2023/01/11 14:11:18;;;;;;;2.65;1.70;;;;;;;;;;5033729;28;20048;-89
2023/01/11 14:14:16;;;;;;;1.60;1.30;;;;;;;;;;5069002;28;20422;-89
2023/01/11 14:17:02;;;;;;;2.00;1.35;;;;;;;;;;5070852;28;20402;-88
2023/01/11 14:19:34;;;;;;;2.38;1.55;;;;;;;;;;5053729;28;20049;-89
2023/01/11 14:22:14;;;;;;;1.50;1.38;;;;;;;;;;5061252;28;20048;-89
2023/01/11 14:24:50;;;;;;;2.35;1.30;;;;;;;;;;5048220;28;20045;-88
2023/01/11 14:27:33;;;;;;;8.43;1.52;;;;;;;;;;5054178;28;20059;-89
2023/01/11 14:30:10;;;;;;;2.22;1.20;;;;;;;;;;5033798;28;20399;-89
2023/01/11 14:33:05;;;;;;;1.70;1.05;;;;;;;;;;5046168;28;20044;-89
2023/01/11 14:36:03;;;;;;;2.05;1.27;;;;;;;;;;5040994;28;20053;-89
2023/01/11 14:38:55;;;;;;;1.40;1.20;;;;;;;;;;5050876;28;20063;-89
2023/01/11 14:41:55;;;;;;;3.35;2.72;;;;;;;;;;5025508;28;20708;-89
2023/01/11 14:44:52;;;;;;;1.50;1.40;;;;;;;;;;5013684;28;20146;-89
2023/01/11 14:47:35;;;;;;;2.90;1.30;;;;;;;;;;5055721;28;20048;-89
2023/01/11 14:50:14;;;;;;;1.20;1.10;;;;;;;;;;5064927;28;20048;-89
2023/01/11 14:52:45;;;;;;;1.25;1.15;;;;;;;;;;5077937;28;20048;-89
2023/01/11 14:55:20;;;;;;;1.05;0.95;;;;;;;;;;5053243;28;20045;-89
2023/01/11 14:58:03;;;;;;;2.15;1.30;;;;;;;;;;5068131;28;20048;-89
2023/01/11 15:01:07;;;;;;;5.80;1.38;;;;;;;;;;5083238;28;20048;-89
2023/01/11 15:03:41;;;;;;;1.40;1.30;;;;;;;;;;5045276;28;20044;-89
2023/01/11 15:06:13;;;;;;;1.33;0.95;;;;;;;;;;5072614;28;20052;-89
2023/01/11 15:08:44;;;;;;;2.97;1.95;;;;;;;;;;5067601;28;20053;-89
2023/01/11 15:11:35;;;;;;;1.40;1.08;;;;;;;;;;5081812;28;20061;-89
2023/01/11 15:14:13;;;;;;;2.63;1.20;;;;;;;;;;5075565;28;20056;-89
2023/01/11 15:19:33;;;;;;;3.53;1.48;;;;;;;;;;5074457;28;20079;-89
2023/01/11 15:22:01;;;;;;;3.33;1.50;;;;;;;;;;5075567;28;20071;-89
2023/01/11 15:24:31;;;;;;;2.70;1.65;;;;;;;;;;5047124;28;20049;-89
2023/01/11 15:27:00;;;;;;;1.48;1.30;;;;;;;;;;5055717;28;20048;-89
2023/01/11 15:29:31;;;;;;;1.25;1.10;;;;;;;;;;5052155;28;20045;-89
2023/01/11 15:32:05;;;;;;;2.88;1.48;;;;;;;;;;5083099;28;20048;-89
2023/01/11 16:00:37;;;;;;;2.00;1.35;;;;;;;;;;5083414;28;20074;-89
2023/01/11 16:03:21;;;;;;;2.80;1.58;;;;;;;;;;5025118;28;20056;-89
2023/01/11 16:05:56;;;;;;;3.00;1.70;;;;;;;;;;5076849;28;20429;-89
2023/01/11 16:08:27;;;;;;;2.78;1.88;;;;;;;;;;5056543;28;20052;-89
2023/01/11 16:11:04;;;;;;;2.13;1.92;;;;;;;;;;5072522;28;20041;-88
2023/01/11 16:13:48;;;;;;;1.83;1.73;;;;;;;;;;5056338;28;20049;-90
2023/01/11 16:16:27;;;;;;;3.55;2.30;;;;;;;;;;5065151;28;20055;-90
2023/01/11 16:19:04;;;;;;;4.85;1.80;;;;;;;;;;5072485;28;20075;-90
2023/01/11 16:21:40;;;;;;;2.75;2.10;;;;;;;;;;5073799;28;20066;-90
2023/01/11 16:24:17;;;;;;;3.83;1.95;;;;;;;;;;5070713;28;20054;-90
2023/01/11 16:26:50;;;;;;;7.70;2.50;;;;;;;;;;5081054;28;20498;-90
2023/01/11 16:29:22;;;;;;;3.13;2.10;;;;;;;;;;5080561;28;20497;-90
2023/01/11 16:31:58;;;;;;;3.35;1.98;;;;;;;;;;5061063;28;20425;-90
2023/01/11 16:34:28;;;;;;;4.72;3.08;;;;;;;;;;5070694;23;20055;-86
2023/01/11 16:36:56;;;;;;;4.20;2.83;;;;;;;;;;5072555;28;20056;-87
2023/01/11 16:39:25;;;;;;;4.60;2.95;;;;;;;;;;5062954;28;20064;-87
2023/01/11 16:41:55;;;;;;;4.28;2.72;;;;;;;;;;5066720;28;20430;-87
2023/01/11 16:44:29;;;;;;;3.92;2.70;;;;;;;;;;5057562;28;20076;-84
2023/01/11 16:47:07;;;;;;;5.13;2.92;;;;;;;;;;5064169;28;20052;-86
2023/01/11 16:49:35;;;;;;;7.28;2.25;;;;;;;;;;5064336;28;20055;-85
2023/01/11 16:52:37;;;;;;;5.07;2.47;;;;;;;;;;5067730;28;20625;-86
2023/01/11 16:55:33;;;;;;;4.60;2.17;;;;;;;;;;5065203;28;20056;-86
2023/01/11 16:58:02;;;;;;;2.83;1.58;;;;;;;;;;5039027;28;20052;-86
2023/01/11 17:00:36;;;;;;;3.33;1.75;;;;;;;;;;5061059;28;20048;-86
2023/01/11 17:12:47;;;;;;;5.25;2.72;;;;;;;;;;5163328;22;20045;-89
2023/01/11 17:15:21;;;;;;;3.05;2.67;;;;;;;;;;4994269;28;20057;-91
2023/01/11 17:17:49;;;;;;;7.60;3.25;;;;;;;;;;4980900;28;20049;-89
2023/01/11 17:20:28;;;;;;;4.00;2.97;;;;;;;;;;4977860;28;20538;-89
2023/01/11 17:23:00;;;;;;;3.90;2.63;;;;;;;;;;4984249;28;20122;-88
2023/01/11 17:25:34;;;;;;;7.78;3.50;;;;;;;;;;4980377;28;20046;-90